createdAt,value
2019-02-16T00:00:42.170Z,1014.47
2019-02-16T00:01:42.227Z,1014.47
2019-02-16T00:02:42.180Z,1014.48
2019-02-16T00:03:42.186Z,1014.43
2019-02-16T00:04:42.190Z,1014.39
2019-02-16T00:05:42.196Z,1014.37
2019-02-16T00:06:42.200Z,1014.37
2019-02-16T00:07:42.208Z,1014.36
2019-02-16T00:08:42.212Z,1014.35
2019-02-16T00:09:42.217Z,1014.30
2019-02-16T00:10:42.223Z,1014.31
2019-02-16T00:11:42.227Z,1014.32
2019-02-16T00:12:42.233Z,1014.31
2019-02-16T00:13:42.239Z,1014.24
2019-02-16T00:14:42.242Z,1014.25
2019-02-16T00:15:42.249Z,1014.26
2019-02-16T00:16:42.255Z,1014.21
2019-02-16T00:17:42.264Z,1014.20
2019-02-16T00:18:42.268Z,1014.18
2019-02-16T00:19:42.271Z,1014.11
2019-02-16T00:20:42.277Z,1014.13
2019-02-16T00:21:42.282Z,1014.07
2019-02-16T00:22:42.286Z,1014.08
2019-02-16T00:23:42.301Z,1014.08
2019-02-16T00:24:42.297Z,1014.02
2019-02-16T00:25:42.302Z,1014.00
2019-02-16T00:26:42.308Z,1014.04
2019-02-16T00:27:42.315Z,1014.07
2019-02-16T00:28:42.321Z,1014.06
2019-02-16T00:29:42.323Z,1014.00
2019-02-16T00:30:42.334Z,1014.00
2019-02-16T00:31:42.335Z,1013.94
2019-02-16T00:32:42.340Z,1013.90
2019-02-16T00:33:42.345Z,1013.93
2019-02-16T00:34:42.350Z,1013.95
2019-02-16T00:35:42.359Z,1013.99
2019-02-16T00:36:42.361Z,1013.94
2019-02-16T00:37:42.365Z,1013.96
2019-02-16T00:38:42.372Z,1013.92
2019-02-16T00:39:42.377Z,1013.92
2019-02-16T00:40:42.382Z,1013.82
2019-02-16T00:41:42.388Z,1013.74
2019-02-16T00:42:42.393Z,1013.75
2019-02-16T00:43:42.399Z,1013.70
2019-02-16T00:44:42.404Z,1013.68
2019-02-16T00:45:42.411Z,1013.68
2019-02-16T00:46:42.413Z,1013.73
2019-02-16T00:47:42.421Z,1013.68
2019-02-16T00:48:42.425Z,1013.71
2019-02-16T00:49:42.430Z,1013.66
2019-02-16T00:50:42.486Z,1013.65
2019-02-16T00:51:42.441Z,1013.64
2019-02-16T00:52:42.556Z,1013.62
2019-02-16T00:53:42.451Z,1013.62
2019-02-16T00:54:42.807Z,1013.58
2019-02-16T00:55:42.462Z,1013.59
2019-02-16T00:56:42.465Z,1013.57
2019-02-16T00:57:42.472Z,1013.55
2019-02-16T00:58:42.478Z,1013.52
2019-02-16T00:59:42.484Z,1013.52
2019-02-16T01:00:42.542Z,1013.47
2019-02-16T01:01:42.493Z,1013.41
2019-02-16T01:02:42.500Z,1013.41
2019-02-16T01:03:42.508Z,1013.37
2019-02-16T01:04:42.511Z,1013.34
2019-02-16T01:05:42.516Z,1013.30
2019-02-16T01:06:42.520Z,1013.28
2019-02-16T01:07:42.526Z,1013.26
2019-02-16T01:08:42.531Z,1013.23
2019-02-16T01:09:42.539Z,1013.20
2019-02-16T01:10:42.543Z,1013.18
2019-02-16T01:11:42.547Z,1013.15
2019-02-16T01:12:42.552Z,1013.13
2019-02-16T01:13:42.558Z,1013.11
2019-02-16T01:14:42.564Z,1013.10
2019-02-16T01:15:42.569Z,1013.07
2019-02-16T01:16:42.573Z,1013.09
2019-02-16T01:17:42.579Z,1013.11
2019-02-16T01:18:42.584Z,1013.14
2019-02-16T01:19:42.588Z,1013.10
2019-02-16T01:20:42.594Z,1013.14
2019-02-16T01:21:42.599Z,1013.10
2019-02-16T01:22:42.649Z,1013.06
2019-02-16T01:23:42.613Z,1013.08
2019-02-16T01:24:42.615Z,1013.04
2019-02-16T01:25:42.621Z,1013.07
2019-02-16T01:26:42.628Z,1013.08
2019-02-16T01:27:42.632Z,1013.06
2019-02-16T01:28:42.636Z,1013.05
2019-02-16T01:29:42.644Z,1013.01
2019-02-16T01:30:42.648Z,1013.00
2019-02-16T01:31:42.653Z,1013.04
2019-02-16T01:32:42.658Z,1013.02
2019-02-16T01:33:42.665Z,1013.02
2019-02-16T01:34:42.669Z,1013.00
2019-02-16T01:35:42.674Z,1013.02
2019-02-16T01:36:42.677Z,1013.00
2019-02-16T01:37:42.685Z,1012.95
2019-02-16T01:38:42.689Z,1012.96
2019-02-16T01:39:42.694Z,1013.01
2019-02-16T01:40:42.699Z,1013.01
2019-02-16T01:41:42.707Z,1012.95
2019-02-16T01:42:42.710Z,1013.00
2019-02-16T01:43:42.717Z,1012.93
2019-02-16T01:44:42.723Z,1012.87
2019-02-16T01:45:42.727Z,1012.88
2019-02-16T01:46:42.733Z,1012.87
2019-02-16T01:47:42.737Z,1012.81
2019-02-16T01:48:42.743Z,1012.81
2019-02-16T01:49:42.748Z,1012.80
2019-02-16T01:50:42.754Z,1012.70
2019-02-16T01:51:42.761Z,1012.72
2019-02-16T01:52:42.763Z,1012.75
2019-02-16T01:53:42.769Z,1012.72
2019-02-16T01:54:42.778Z,1012.73
2019-02-16T01:55:42.780Z,1012.76
2019-02-16T01:56:42.785Z,1012.74
2019-02-16T01:57:42.791Z,1012.72
2019-02-16T01:58:42.796Z,1012.68
2019-02-16T01:59:42.803Z,1012.73
2019-02-16T02:00:42.807Z,1012.72
2019-02-16T02:01:42.811Z,1012.61
2019-02-16T02:02:42.817Z,1012.54
2019-02-16T02:03:42.823Z,1012.49
2019-02-16T02:04:42.827Z,1012.43
2019-02-16T02:05:42.833Z,1012.42
2019-02-16T02:06:42.839Z,1012.43
2019-02-16T02:07:42.844Z,1012.40
2019-02-16T02:08:42.850Z,1012.32
2019-02-16T02:09:42.854Z,1012.33
2019-02-16T02:10:42.858Z,1012.34
2019-02-16T02:11:42.865Z,1012.28
2019-02-16T02:12:42.872Z,1012.26
2019-02-16T02:13:42.875Z,1012.28
2019-02-16T02:14:42.882Z,1012.29
2019-02-16T02:15:42.888Z,1012.22
2019-02-16T02:16:42.890Z,1012.19
2019-02-16T02:17:42.897Z,1012.20
2019-02-16T02:18:42.901Z,1012.17
2019-02-16T02:19:42.909Z,1012.10
2019-02-16T02:20:42.912Z,1012.07
2019-02-16T02:21:42.919Z,1012.03
2019-02-16T02:22:42.926Z,1011.98
2019-02-16T02:23:42.929Z,1011.95
2019-02-16T02:24:42.932Z,1011.98
2019-02-16T02:25:42.940Z,1011.96
2019-02-16T02:26:42.944Z,1011.96
2019-02-16T02:27:42.950Z,1011.95
2019-02-16T02:28:42.954Z,1011.88
2019-02-16T02:29:42.961Z,1011.92
2019-02-16T02:30:43.014Z,1011.90
2019-02-16T02:31:43.081Z,1011.97
2019-02-16T02:32:42.974Z,1011.98
2019-02-16T02:33:42.980Z,1011.98
2019-02-16T02:34:42.987Z,1011.98
2019-02-16T02:35:42.995Z,1011.97
2019-02-16T02:36:43.026Z,1011.99
2019-02-16T02:37:43.003Z,1011.99
2019-02-16T02:38:43.008Z,1011.97
2019-02-16T02:39:43.013Z,1011.98
2019-02-16T02:40:43.019Z,1012.00
2019-02-16T02:41:43.024Z,1011.99
2019-02-16T02:42:43.032Z,1011.92
2019-02-16T02:43:43.035Z,1011.87
2019-02-16T02:44:43.046Z,1011.84
2019-02-16T02:45:43.044Z,1011.81
2019-02-16T02:46:43.050Z,1011.78
2019-02-16T02:47:43.056Z,1011.72
2019-02-16T02:48:43.063Z,1011.68
2019-02-16T02:49:43.068Z,1011.71
2019-02-16T02:50:43.073Z,1011.72
2019-02-16T02:51:51.674Z,1011.78
2019-02-16T02:52:43.083Z,1011.71
2019-02-16T02:53:43.088Z,1011.70
2019-02-16T02:54:43.093Z,1011.68
2019-02-16T02:55:43.349Z,1011.69
2019-02-16T02:56:43.102Z,1011.71
2019-02-16T02:57:43.111Z,1011.74
2019-02-16T02:58:43.117Z,1011.71
2019-02-16T02:59:43.122Z,1011.71
2019-02-16T03:00:43.124Z,1011.67
2019-02-16T03:01:43.131Z,1011.64
2019-02-16T03:02:43.137Z,1011.67
2019-02-16T03:03:43.141Z,1011.68
2019-02-16T03:04:43.146Z,1011.64
2019-02-16T03:05:43.152Z,1011.60
2019-02-16T03:06:43.159Z,1011.58
2019-02-16T03:07:43.163Z,1011.63
2019-02-16T03:08:43.169Z,1011.60
2019-02-16T03:09:43.173Z,1011.54
2019-02-16T03:10:43.205Z,1011.51
2019-02-16T03:11:43.184Z,1011.57
2019-02-16T03:12:43.188Z,1011.46
2019-02-16T03:13:43.193Z,1011.45
2019-02-16T03:14:43.199Z,1011.41
2019-02-16T03:15:43.204Z,1011.37
2019-02-16T03:16:43.209Z,1011.37
2019-02-16T03:17:43.216Z,1011.34
2019-02-16T03:18:43.222Z,1011.33
2019-02-16T03:19:43.225Z,1011.31
2019-02-16T03:20:43.231Z,1011.30
2019-02-16T03:21:43.238Z,1011.37
2019-02-16T03:22:43.241Z,1011.33
2019-02-16T03:23:43.248Z,1011.34
2019-02-16T03:24:43.258Z,1011.32
2019-02-16T03:25:43.262Z,1011.31
2019-02-16T03:26:43.262Z,1011.31
2019-02-16T03:27:43.268Z,1011.27
2019-02-16T03:28:43.274Z,1011.23
2019-02-16T03:29:43.280Z,1011.27
2019-02-16T03:30:43.287Z,1011.26
2019-02-16T03:31:43.290Z,1011.19
2019-02-16T03:32:43.298Z,1011.16
2019-02-16T03:33:43.310Z,1011.13
2019-02-16T03:34:43.305Z,1011.11
2019-02-16T03:35:43.311Z,1011.00
2019-02-16T03:36:43.314Z,1010.99
2019-02-16T03:37:43.321Z,1010.97
2019-02-16T03:38:43.325Z,1010.95
2019-02-16T03:39:43.332Z,1010.88
2019-02-16T03:40:43.336Z,1010.90
2019-02-16T03:41:43.346Z,1010.95
2019-02-16T03:42:43.347Z,1010.84
2019-02-16T03:43:43.354Z,1010.84
2019-02-16T03:44:43.356Z,1010.79
2019-02-16T03:45:43.362Z,1010.82
2019-02-16T03:46:43.369Z,1010.83
2019-02-16T03:47:43.373Z,1010.83
2019-02-16T03:48:43.378Z,1010.81
2019-02-16T03:49:43.386Z,1010.78
2019-02-16T03:50:43.388Z,1010.83
2019-02-16T03:51:43.395Z,1010.81
2019-02-16T03:52:43.400Z,1010.81
2019-02-16T03:53:43.458Z,1010.78
2019-02-16T03:54:43.423Z,1010.77
2019-02-16T03:55:43.417Z,1010.79
2019-02-16T03:56:43.420Z,1010.82
2019-02-16T03:57:43.426Z,1010.84
2019-02-16T03:58:43.431Z,1010.76
2019-02-16T03:59:43.440Z,1010.74
2019-02-16T04:00:43.443Z,1010.75
2019-02-16T04:01:43.447Z,1010.75
2019-02-16T04:02:43.457Z,1010.74
2019-02-16T04:03:43.459Z,1010.76
2019-02-16T04:04:43.462Z,1010.82
2019-02-16T04:05:43.473Z,1010.79
2019-02-16T04:06:43.474Z,1010.82
2019-02-16T04:07:43.486Z,1010.83
2019-02-16T04:08:43.484Z,1010.78
2019-02-16T04:09:43.493Z,1010.77
2019-02-16T04:10:43.495Z,1010.69
2019-02-16T04:11:43.500Z,1010.66
2019-02-16T04:12:43.505Z,1010.66
2019-02-16T04:13:43.510Z,1010.62
2019-02-16T04:14:43.523Z,1010.59
2019-02-16T04:15:43.523Z,1010.54
2019-02-16T04:16:43.526Z,1010.55
2019-02-16T04:17:43.532Z,1010.47
2019-02-16T04:18:43.538Z,1010.45
2019-02-16T04:19:43.544Z,1010.45
2019-02-16T04:20:43.546Z,1010.47
2019-02-16T04:21:43.554Z,1010.42
2019-02-16T04:22:43.561Z,1010.37
2019-02-16T04:23:43.563Z,1010.32
2019-02-16T04:24:43.570Z,1010.33
2019-02-16T04:25:43.576Z,1010.27
2019-02-16T04:26:43.580Z,1010.28
2019-02-16T04:27:43.587Z,1010.28
2019-02-16T04:28:43.590Z,1010.30
2019-02-16T04:29:43.595Z,1010.33
2019-02-16T04:30:43.602Z,1010.27
2019-02-16T04:31:43.607Z,1010.23
2019-02-16T04:32:43.610Z,1010.19
2019-02-16T04:33:43.617Z,1010.15
2019-02-16T04:34:43.623Z,1010.13
2019-02-16T04:35:43.648Z,1010.14
2019-02-16T04:36:43.833Z,1010.10
2019-02-16T04:37:43.639Z,1010.05
2019-02-16T04:38:43.643Z,1009.97
2019-02-16T04:39:43.651Z,1009.88
2019-02-16T04:40:43.654Z,1009.95
2019-02-16T04:41:43.660Z,1009.92
2019-02-16T04:42:43.663Z,1009.91
2019-02-16T04:43:43.672Z,1009.89
2019-02-16T04:44:43.767Z,1009.96
2019-02-16T04:45:43.679Z,1009.93
2019-02-16T04:46:43.687Z,1009.93
2019-02-16T04:47:43.691Z,1009.90
2019-02-16T04:48:43.697Z,1009.90
2019-02-16T04:49:43.704Z,1009.88
2019-02-16T04:50:43.707Z,1009.84
2019-02-16T04:51:43.713Z,1009.84
2019-02-16T04:52:43.718Z,1009.84
2019-02-16T04:53:43.723Z,1009.83
2019-02-16T04:54:43.728Z,1009.78
2019-02-16T04:55:43.737Z,1009.78
2019-02-16T04:56:43.760Z,1009.82
2019-02-16T04:57:43.743Z,1009.76
2019-02-16T04:58:43.748Z,1009.75
2019-02-16T04:59:43.755Z,1009.75
2019-02-16T05:00:43.760Z,1009.73
2019-02-16T05:01:43.763Z,1009.68
2019-02-16T05:02:43.769Z,1009.71
2019-02-16T05:03:43.776Z,1009.67
2019-02-16T05:04:43.781Z,1009.65
2019-02-16T05:05:43.784Z,1009.66
2019-02-16T05:06:43.793Z,1009.64
2019-02-16T05:07:43.796Z,1009.63
2019-02-16T05:08:43.801Z,1009.59
2019-02-16T05:09:43.807Z,1009.57
2019-02-16T05:10:43.813Z,1009.55
2019-02-16T05:11:43.818Z,1009.52
2019-02-16T05:12:43.825Z,1009.50
2019-02-16T05:13:43.827Z,1009.51
2019-02-16T05:14:43.832Z,1009.42
2019-02-16T05:15:43.840Z,1009.45
2019-02-16T05:16:43.842Z,1009.43
2019-02-16T05:17:43.848Z,1009.40
2019-02-16T05:18:43.855Z,1009.40
2019-02-16T05:19:43.861Z,1009.41
2019-02-16T05:20:43.863Z,1009.38
2019-02-16T05:21:43.870Z,1009.37
2019-02-16T05:22:45.009Z,1009.35
2019-02-16T05:23:43.881Z,1009.34
2019-02-16T05:24:43.887Z,1009.34
2019-02-16T05:25:43.893Z,1009.37
2019-02-16T05:26:43.897Z,1009.39
2019-02-16T05:27:43.904Z,1009.40
2019-02-16T05:28:43.930Z,1009.44
2019-02-16T05:29:43.919Z,1009.43
2019-02-16T05:30:43.918Z,1009.42
2019-02-16T05:31:43.924Z,1009.37
2019-02-16T05:32:43.929Z,1009.42
2019-02-16T05:33:43.942Z,1009.35
2019-02-16T05:34:43.940Z,1009.38
2019-02-16T05:35:43.946Z,1009.33
2019-02-16T05:36:43.954Z,1009.35
2019-02-16T05:37:43.956Z,1009.31
2019-02-16T05:38:43.962Z,1009.29
2019-02-16T05:39:43.965Z,1009.25
2019-02-16T05:40:43.971Z,1009.20
2019-02-16T05:41:44.101Z,1009.19
2019-02-16T05:42:43.981Z,1009.12
2019-02-16T05:43:43.988Z,1009.15
2019-02-16T05:44:43.992Z,1009.08
2019-02-16T05:45:43.996Z,1009.09
2019-02-16T05:46:44.009Z,1009.12
2019-02-16T05:47:44.006Z,1009.15
2019-02-16T05:48:44.013Z,1009.15
2019-02-16T05:49:44.016Z,1009.18
2019-02-16T05:50:44.023Z,1009.18
2019-02-16T05:51:44.034Z,1009.13
2019-02-16T05:52:53.808Z,1009.13
2019-02-16T05:53:44.039Z,1009.14
2019-02-16T05:54:44.044Z,1009.15
2019-02-16T05:55:44.052Z,1009.19
2019-02-16T05:56:44.054Z,1009.14
2019-02-16T05:57:44.063Z,1009.11
2019-02-16T05:58:44.065Z,1009.17
2019-02-16T05:59:44.070Z,1009.16
2019-02-16T06:00:44.077Z,1009.15
2019-02-16T06:01:53.256Z,1009.12
2019-02-16T06:02:44.086Z,1009.13
2019-02-16T06:03:44.095Z,1009.16
2019-02-16T06:04:44.097Z,1009.16
2019-02-16T06:05:44.102Z,1009.16
2019-02-16T06:06:44.111Z,1009.14
2019-02-16T06:07:44.114Z,1009.14
2019-02-16T06:08:44.117Z,1009.18
2019-02-16T06:09:44.124Z,1009.20
2019-02-16T06:10:44.128Z,1009.13
2019-02-16T06:11:44.152Z,1009.13
2019-02-16T06:12:44.138Z,1009.07
2019-02-16T06:13:44.143Z,1009.12
2019-02-16T06:14:44.149Z,1009.08
2019-02-16T06:15:44.156Z,1009.06
2019-02-16T06:16:44.159Z,1009.01
2019-02-16T06:17:44.170Z,1008.94
2019-02-16T06:18:44.170Z,1008.96
2019-02-16T06:19:44.175Z,1008.94
2019-02-16T06:20:44.441Z,1008.88
2019-02-16T06:21:44.186Z,1008.85
2019-02-16T06:22:44.192Z,1008.79
2019-02-16T06:23:44.200Z,1008.76
2019-02-16T06:24:44.202Z,1008.80
2019-02-16T06:25:44.207Z,1008.81
2019-02-16T06:26:44.212Z,1008.80
2019-02-16T06:27:44.220Z,1008.76
2019-02-16T06:28:44.222Z,1008.75
2019-02-16T06:29:44.230Z,1008.75
2019-02-16T06:30:44.233Z,1008.79
2019-02-16T06:31:44.247Z,1008.70
2019-02-16T06:32:44.246Z,1008.72
2019-02-16T06:33:44.248Z,1008.71
2019-02-16T06:34:44.255Z,1008.80
2019-02-16T06:35:44.262Z,1008.73
2019-02-16T06:36:44.265Z,1008.73
2019-02-16T06:37:44.269Z,1008.71
2019-02-16T06:38:44.275Z,1008.65
2019-02-16T06:39:44.284Z,1008.59
2019-02-16T06:40:44.293Z,1008.62
2019-02-16T06:41:44.292Z,1008.67
2019-02-16T06:42:44.298Z,1008.61
2019-02-16T06:43:44.304Z,1008.62
2019-02-16T06:44:44.305Z,1008.63
2019-02-16T06:45:44.313Z,1008.61
2019-02-16T06:46:44.317Z,1008.61
2019-02-16T06:47:44.324Z,1008.60
2019-02-16T06:48:44.330Z,1008.63
2019-02-16T06:49:44.334Z,1008.67
2019-02-16T06:50:44.339Z,1008.52
2019-02-16T06:51:44.352Z,1008.51
2019-02-16T06:52:44.348Z,1008.52
2019-02-16T06:53:44.354Z,1008.46
2019-02-16T06:54:44.360Z,1008.49
2019-02-16T06:55:44.365Z,1008.45
2019-02-16T06:56:44.371Z,1008.46
2019-02-16T06:57:44.374Z,1008.43
2019-02-16T06:58:44.382Z,1008.41
2019-02-16T06:59:44.388Z,1008.44
2019-02-16T07:00:44.392Z,1008.37
2019-02-16T07:01:44.397Z,1008.39
2019-02-16T07:02:44.402Z,1008.43
2019-02-16T07:03:44.408Z,1008.38
2019-02-16T07:04:44.412Z,1008.39
2019-02-16T07:05:44.418Z,1008.39
2019-02-16T07:06:44.544Z,1008.37
2019-02-16T07:07:44.428Z,1008.28
2019-02-16T07:08:44.469Z,1008.32
2019-02-16T07:09:44.442Z,1008.36
2019-02-16T07:10:44.446Z,1008.27
2019-02-16T07:11:44.449Z,1008.29
2019-02-16T07:12:44.456Z,1008.27
2019-02-16T07:13:44.461Z,1008.27
2019-02-16T07:14:44.466Z,1008.29
2019-02-16T07:15:44.469Z,1008.27
2019-02-16T07:16:44.477Z,1008.27
2019-02-16T07:17:44.481Z,1008.31
2019-02-16T07:18:44.486Z,1008.31
2019-02-16T07:19:44.491Z,1008.30
2019-02-16T07:20:44.495Z,1008.28
2019-02-16T07:21:44.504Z,1008.24
2019-02-16T07:22:44.507Z,1008.18
2019-02-16T07:23:44.512Z,1008.14
2019-02-16T07:24:44.518Z,1008.12
2019-02-16T07:25:44.523Z,1008.12
2019-02-16T07:26:44.529Z,1008.15
2019-02-16T07:27:44.535Z,1008.14
2019-02-16T07:28:44.539Z,1008.11
2019-02-16T07:29:44.547Z,1008.10
2019-02-16T07:30:44.550Z,1008.01
2019-02-16T07:31:44.556Z,1008.04
2019-02-16T07:32:44.560Z,1008.02
2019-02-16T07:33:44.568Z,1008.02
2019-02-16T07:34:44.572Z,1007.91
2019-02-16T07:35:44.581Z,1007.91
2019-02-16T07:36:44.581Z,1007.97
2019-02-16T07:37:44.590Z,1008.02
2019-02-16T07:38:44.592Z,1007.98
2019-02-16T07:39:44.599Z,1007.94
2019-02-16T07:40:44.605Z,1007.88
2019-02-16T07:41:44.611Z,1007.91
2019-02-16T07:42:44.612Z,1007.88
2019-02-16T07:43:44.619Z,1007.86
2019-02-16T07:44:44.624Z,1007.88
2019-02-16T07:45:44.628Z,1007.87
2019-02-16T07:46:44.641Z,1007.89
2019-02-16T07:47:44.642Z,1007.82
2019-02-16T07:48:44.644Z,1007.82
2019-02-16T07:49:44.652Z,1007.79
2019-02-16T07:50:44.656Z,1007.82
2019-02-16T07:51:44.662Z,1007.82
2019-02-16T07:52:44.667Z,1007.82
2019-02-16T07:53:44.674Z,1007.76
2019-02-16T07:54:44.677Z,1007.71
2019-02-16T07:55:44.681Z,1007.67
2019-02-16T07:56:44.688Z,1007.64
2019-02-16T07:57:44.691Z,1007.66
2019-02-16T07:58:44.698Z,1007.63
2019-02-16T07:59:44.705Z,1007.62
2019-02-16T08:00:44.709Z,1007.59
2019-02-16T08:01:44.714Z,1007.58
2019-02-16T08:02:44.721Z,1007.60
2019-02-16T08:03:44.731Z,1007.55
2019-02-16T08:04:44.729Z,1007.57
2019-02-16T08:05:44.736Z,1007.50
2019-02-16T08:06:44.740Z,1007.47
2019-02-16T08:07:44.746Z,1007.49
2019-02-16T08:08:44.750Z,1007.49
2019-02-16T08:09:44.757Z,1007.58
2019-02-16T08:10:44.763Z,1007.57
2019-02-16T08:11:44.768Z,1007.54
2019-02-16T08:12:44.777Z,1007.39
2019-02-16T08:13:44.778Z,1007.39
2019-02-16T08:14:44.784Z,1007.39
2019-02-16T08:15:44.790Z,1007.42
2019-02-16T08:16:44.794Z,1007.44
2019-02-16T08:17:44.800Z,1007.47
2019-02-16T08:18:44.805Z,1007.33
2019-02-16T08:19:44.811Z,1007.40
2019-02-16T08:20:44.820Z,1007.36
2019-02-16T08:21:44.821Z,1007.31
2019-02-16T08:22:44.827Z,1007.35
2019-02-16T08:23:44.832Z,1007.28
2019-02-16T08:24:44.838Z,1007.31
2019-02-16T08:25:44.907Z,1007.34
2019-02-16T08:26:44.849Z,1007.28
2019-02-16T08:27:44.884Z,1007.31
2019-02-16T08:28:44.859Z,1007.28
2019-02-16T08:29:44.864Z,1007.26
2019-02-16T08:30:44.869Z,1007.25
2019-02-16T08:31:44.877Z,1007.23
2019-02-16T08:32:44.881Z,1007.17
2019-02-16T08:33:44.889Z,1007.18
2019-02-16T08:34:44.891Z,1007.17
2019-02-16T08:35:44.899Z,1007.16
2019-02-16T08:36:44.901Z,1007.19
2019-02-16T08:37:44.914Z,1007.18
2019-02-16T08:38:44.914Z,1007.18
2019-02-16T08:39:44.919Z,1007.15
2019-02-16T08:40:44.924Z,1007.13
2019-02-16T08:41:44.930Z,1007.09
2019-02-16T08:42:44.934Z,1007.13
2019-02-16T08:43:44.950Z,1007.07
2019-02-16T08:44:44.947Z,1007.09
2019-02-16T08:45:44.951Z,1007.05
2019-02-16T08:46:44.956Z,1007.07
2019-02-16T08:47:44.962Z,1007.11
2019-02-16T08:48:44.967Z,1007.05
2019-02-16T08:49:44.973Z,1007.08
2019-02-16T08:50:44.978Z,1006.98
2019-02-16T08:51:44.985Z,1007.00
2019-02-16T08:52:44.989Z,1007.04
2019-02-16T08:53:49.800Z,1006.96
2019-02-16T08:54:45.001Z,1006.97
2019-02-16T08:55:46.986Z,1006.95
2019-02-16T08:56:45.052Z,1006.96
2019-02-16T08:57:45.017Z,1007.00
2019-02-16T08:58:45.022Z,1006.98
2019-02-16T08:59:45.033Z,1007.04
2019-02-16T09:00:45.033Z,1007.02
2019-02-16T09:01:45.039Z,1007.01
2019-02-16T09:02:45.045Z,1006.99
2019-02-16T09:03:45.051Z,1006.90
2019-02-16T09:04:45.056Z,1006.87
2019-02-16T09:05:45.059Z,1006.92
2019-02-16T09:06:45.066Z,1006.91
2019-02-16T09:07:45.088Z,1006.91
2019-02-16T09:08:45.077Z,1006.89
2019-02-16T09:09:45.088Z,1006.84
2019-02-16T09:10:45.089Z,1006.88
2019-02-16T09:11:45.092Z,1006.89
2019-02-16T09:12:45.098Z,1006.80
2019-02-16T09:13:45.104Z,1006.84
2019-02-16T09:14:45.110Z,1006.82
2019-02-16T09:15:45.116Z,1006.82
2019-02-16T09:16:45.122Z,1006.80
2019-02-16T09:17:45.125Z,1006.78
2019-02-16T09:18:45.131Z,1006.74
2019-02-16T09:19:45.136Z,1006.74
2019-02-16T09:20:45.142Z,1006.70
2019-02-16T09:21:45.149Z,1006.66
2019-02-16T09:22:45.172Z,1006.66
2019-02-16T09:23:45.158Z,1006.65
2019-02-16T09:24:45.164Z,1006.62
2019-02-16T09:25:45.169Z,1006.60
2019-02-16T09:26:45.174Z,1006.59
2019-02-16T09:27:45.249Z,1006.61
2019-02-16T09:28:45.190Z,1006.57
2019-02-16T09:29:45.192Z,1006.58
2019-02-16T09:30:45.199Z,1006.55
2019-02-16T09:31:45.203Z,1006.55
2019-02-16T09:32:45.206Z,1006.51
2019-02-16T09:33:45.232Z,1006.50
2019-02-16T09:34:45.251Z,1006.47
2019-02-16T09:35:45.224Z,1006.49
2019-02-16T09:36:45.231Z,1006.46
2019-02-16T09:37:45.236Z,1006.50
2019-02-16T09:38:45.242Z,1006.48
2019-02-16T09:39:45.250Z,1006.50
2019-02-16T09:40:45.251Z,1006.54
2019-02-16T09:41:45.258Z,1006.49
2019-02-16T09:42:45.326Z,1006.57
2019-02-16T09:43:45.270Z,1006.46
2019-02-16T09:44:45.275Z,1006.52
2019-02-16T09:45:45.285Z,1006.44
2019-02-16T09:46:45.285Z,1006.40
2019-02-16T09:47:45.325Z,1006.44
2019-02-16T09:48:45.297Z,1006.40
2019-02-16T09:49:45.301Z,1006.35
2019-02-16T09:50:45.308Z,1006.38
2019-02-16T09:51:45.315Z,1006.25
2019-02-16T09:52:45.319Z,1006.34
2019-02-16T09:53:45.327Z,1006.30
2019-02-16T09:54:45.330Z,1006.31
2019-02-16T09:55:45.336Z,1006.27
2019-02-16T09:56:45.342Z,1006.26
2019-02-16T09:57:45.347Z,1006.24
2019-02-16T09:58:45.352Z,1006.18
2019-02-16T09:59:45.359Z,1006.16
2019-02-16T10:00:45.365Z,1006.18
2019-02-16T10:01:45.370Z,1006.14
2019-02-16T10:02:45.391Z,1006.18
2019-02-16T10:03:45.382Z,1006.14
2019-02-16T10:04:45.387Z,1006.15
2019-02-16T10:05:45.394Z,1006.07
2019-02-16T10:06:45.400Z,1006.04
2019-02-16T10:07:45.405Z,1006.07
2019-02-16T10:08:45.409Z,1006.06
2019-02-16T10:09:45.416Z,1006.08
2019-02-16T10:10:45.422Z,1006.03
2019-02-16T10:11:45.427Z,1006.02
2019-02-16T10:12:45.431Z,1006.12
2019-02-16T10:13:45.440Z,1006.14
2019-02-16T10:14:45.445Z,1006.21
2019-02-16T10:15:45.452Z,1006.34
2019-02-16T10:16:45.455Z,1006.22
2019-02-16T10:17:45.466Z,1006.28
2019-02-16T10:18:45.482Z,1006.23
2019-02-16T10:19:45.475Z,1006.23
2019-02-16T10:20:45.480Z,1006.22
2019-02-16T10:21:45.487Z,1006.24
2019-02-16T10:22:45.493Z,1006.29
2019-02-16T10:23:45.499Z,1006.32
2019-02-16T10:24:45.506Z,1006.24
2019-02-16T10:25:45.509Z,1006.30
2019-02-16T10:26:45.517Z,1006.23
2019-02-16T10:27:45.523Z,1006.18
2019-02-16T10:28:45.528Z,1006.07
2019-02-16T10:29:45.534Z,1005.94
2019-02-16T10:30:45.541Z,1006.03
2019-02-16T10:31:45.546Z,1006.05
2019-02-16T10:32:45.554Z,1006.05
2019-02-16T10:33:45.562Z,1006.03
2019-02-16T10:34:45.565Z,1006.02
2019-02-16T10:35:45.572Z,1005.93
2019-02-16T10:36:45.577Z,1005.83
2019-02-16T10:37:45.583Z,1005.85
2019-02-16T10:38:45.588Z,1005.81
2019-02-16T10:39:45.594Z,1005.83
2019-02-16T10:40:45.601Z,1005.83
2019-02-16T10:41:45.711Z,1005.84
2019-02-16T10:42:45.614Z,1005.94
2019-02-16T10:43:45.626Z,1005.98
2019-02-16T10:44:45.630Z,1006.00
2019-02-16T10:45:45.634Z,1005.90
2019-02-16T10:46:45.638Z,1005.96
2019-02-16T10:47:45.647Z,1005.92
2019-02-16T10:48:45.654Z,1005.87
2019-02-16T10:49:45.659Z,1005.91
2019-02-16T10:50:45.664Z,1005.84
2019-02-16T10:51:45.672Z,1005.85
2019-02-16T10:52:45.677Z,1005.94
2019-02-16T10:53:45.686Z,1005.90
2019-02-16T10:54:45.711Z,1005.87
2019-02-16T10:55:45.700Z,1005.74
2019-02-16T10:56:45.705Z,1005.69
2019-02-16T10:57:45.717Z,1005.81
2019-02-16T10:58:45.718Z,1005.74
2019-02-16T10:59:45.964Z,1005.69
2019-02-16T11:00:45.732Z,1005.72
2019-02-16T11:01:45.739Z,1005.75
2019-02-16T11:02:45.746Z,1005.70
2019-02-16T11:03:45.754Z,1005.76
2019-02-16T11:04:45.762Z,1005.78
2019-02-16T11:05:45.768Z,1005.75
2019-02-16T11:06:45.779Z,1005.78
2019-02-16T11:07:45.999Z,1005.81
2019-02-16T11:08:45.789Z,1005.74
2019-02-16T11:09:45.798Z,1005.65
2019-02-16T11:10:45.810Z,1005.60
2019-02-16T11:11:45.841Z,1005.50
2019-02-16T11:12:45.823Z,1005.61
2019-02-16T11:13:45.830Z,1005.69
2019-02-16T11:14:45.839Z,1005.65
2019-02-16T11:15:45.847Z,1005.66
2019-02-16T11:16:45.855Z,1005.64
2019-02-16T11:17:45.870Z,1005.59
2019-02-16T11:18:45.870Z,1005.49
2019-02-16T11:19:45.880Z,1005.57
2019-02-16T11:20:45.889Z,1005.65
2019-02-16T11:21:45.899Z,1005.72
2019-02-16T11:22:45.906Z,1005.72
2019-02-16T11:23:45.916Z,1005.77
2019-02-16T11:24:45.922Z,1005.70
2019-02-16T11:25:45.933Z,1005.79
2019-02-16T11:26:45.944Z,1005.82
2019-02-16T11:27:45.952Z,1005.69
2019-02-16T11:28:45.962Z,1005.59
2019-02-16T11:29:45.975Z,1005.51
2019-02-16T11:30:45.984Z,1005.47
2019-02-16T11:31:45.994Z,1005.45
2019-02-16T11:32:46.002Z,1005.45
2019-02-16T11:33:46.016Z,1005.41
2019-02-16T11:34:46.023Z,1005.41
2019-02-16T11:35:46.034Z,1005.42
2019-02-16T11:36:46.044Z,1005.39
2019-02-16T11:37:46.054Z,1005.25
2019-02-16T11:38:46.066Z,1005.18
2019-02-16T11:39:46.076Z,1005.13
2019-02-16T11:40:46.085Z,1005.11
2019-02-16T11:41:46.094Z,1005.01
2019-02-16T11:42:46.104Z,1005.13
2019-02-16T11:43:46.116Z,1005.10
2019-02-16T11:44:46.126Z,1005.16
2019-02-16T11:45:46.136Z,1005.18
2019-02-16T11:46:46.146Z,1005.13
2019-02-16T11:47:46.274Z,1005.20
2019-02-16T11:48:46.169Z,1005.25
2019-02-16T11:49:46.181Z,1005.31
2019-02-16T11:50:46.191Z,1005.22
2019-02-16T11:51:46.200Z,1005.24
2019-02-16T11:52:46.211Z,1005.21
2019-02-16T11:53:46.223Z,1005.18
2019-02-16T11:54:46.233Z,1005.12
2019-02-16T11:55:46.245Z,1005.09
2019-02-16T11:56:46.255Z,1005.06
2019-02-16T11:57:46.267Z,1005.03
2019-02-16T11:58:46.277Z,1005.00
2019-02-16T11:59:46.288Z,1005.01
2019-02-16T12:00:46.299Z,1004.99
2019-02-16T12:01:46.310Z,1004.94
2019-02-16T12:02:46.321Z,1004.95
2019-02-16T12:03:46.330Z,1004.90
2019-02-16T12:04:46.341Z,1004.86
2019-02-16T12:05:46.356Z,1004.93